BAW75K EGLL-LSGG
Flight info
| Callsign | BAW75K |
|---|---|
| Flight time | 1h 17m |
| Altitude | 33000 |
| Route | MODMI1J MODMI M185 MID UL612 VEULE DCT PEKIM DCT PILUL DCT PIMUP/N0428F270 DCT PIXIS DCT PIBAT/N0401F230 DCT LUSAR LUSAR2N |
| Aircraft | A320/M-L/C |
Departure
| Time | 2026-05-07 19:06 |
|---|---|
| Airport | London Heathrow Airport (EGLL) |
Arrival
| Time | 2026-05-07 20:23 |
|---|---|
| Airport | Geneva International Airport (LSGG) |
| Time | Latitude | Longitude | Altitude | Speed | Heading |
|---|---|---|---|---|---|
| 2026-05-07 18:41 | 51.47405 | -0.48831 | 87 ft | 0 kts | 179° |
| 2026-05-07 18:53 | 51.47415 | -0.48832 | 89 ft | 4 kts | 178° |
| 2026-05-07 18:53 | 51.47442 | -0.48834 | 88 ft | 4 kts | 172° |
| 2026-05-07 18:53 | 51.47468 | -0.48843 | 90 ft | 4 kts | 154° |
| 2026-05-07 18:53 | 51.47485 | -0.48866 | 88 ft | 3 kts | 91° |
| 2026-05-07 18:54 | 51.47485 | -0.48871 | 88 ft | 0 kts | 88° |
| 2026-05-07 18:58 | 51.47485 | -0.48869 | 88 ft | 1 kts | 88° |
| 2026-05-07 18:59 | 51.47486 | -0.48845 | 88 ft | 3 kts | 88° |
| 2026-05-07 18:59 | 51.47487 | -0.48797 | 87 ft | 5 kts | 88° |
| 2026-05-07 18:59 | 51.47489 | -0.48723 | 88 ft | 8 kts | 88° |
| 2026-05-07 18:59 | 51.47490 | -0.48622 | 87 ft | 10 kts | 89° |
| 2026-05-07 19:00 | 51.47483 | -0.48503 | 89 ft | 11 kts | 121° |
| 2026-05-07 19:00 | 51.47402 | -0.48477 | 87 ft | 13 kts | 180° |
| 2026-05-07 19:00 | 51.47302 | -0.48476 | 87 ft | 15 kts | 179° |
| 2026-05-07 19:00 | 51.47194 | -0.48476 | 87 ft | 16 kts | 180° |
| 2026-05-07 19:01 | 51.47086 | -0.48475 | 87 ft | 15 kts | 179° |
| 2026-05-07 19:01 | 51.46980 | -0.48474 | 87 ft | 15 kts | 180° |
| 2026-05-07 19:01 | 51.46886 | -0.48472 | 87 ft | 11 kts | 179° |
| 2026-05-07 19:01 | 51.46830 | -0.48471 | 88 ft | 2 kts | 179° |
| 2026-05-07 19:02 | 51.46811 | -0.48471 | 88 ft | 3 kts | 180° |
| 2026-05-07 19:02 | 51.46783 | -0.48471 | 87 ft | 5 kts | 180° |
| 2026-05-07 19:02 | 51.46747 | -0.48494 | 90 ft | 6 kts | 229° |
| 2026-05-07 19:02 | 51.46740 | -0.48574 | 87 ft | 8 kts | 268° |
| 2026-05-07 19:03 | 51.46740 | -0.48669 | 87 ft | 7 kts | 270° |
| 2026-05-07 19:03 | 51.46718 | -0.48744 | 92 ft | 8 kts | 210° |
| 2026-05-07 19:03 | 51.46654 | -0.48750 | 87 ft | 10 kts | 182° |
| 2026-05-07 19:03 | 51.46583 | -0.48780 | 88 ft | 12 kts | 200° |
| 2026-05-07 19:04 | 51.46499 | -0.48765 | 89 ft | 13 kts | 141° |
| 2026-05-07 19:04 | 51.46476 | -0.48682 | 88 ft | 7 kts | 94° |
| 2026-05-07 19:04 | 51.46476 | -0.48659 | 88 ft | 0 kts | 89° |
| 2026-05-07 19:05 | 51.46477 | -0.48651 | 88 ft | 5 kts | 88° |
| 2026-05-07 19:05 | 51.46478 | -0.48219 | 88 ft | 73 kts | 90° |
| 2026-05-07 19:05 | 51.46482 | -0.47103 | 87 ft | 124 kts | 90° |
| 2026-05-07 19:05 | 51.46489 | -0.45494 | 100 ft | 162 kts | 89° |
| 2026-05-07 19:06 | 51.46510 | -0.43663 | 584 ft | 167 kts | 91° |
| 2026-05-07 19:06 | 51.45880 | -0.40154 | 1612 ft | 184 kts | 128° |
| 2026-05-07 19:06 | 51.45057 | -0.38453 | 2016 ft | 199 kts | 137° |
| 2026-05-07 19:07 | 51.43855 | -0.37337 | 2524 ft | 207 kts | 159° |
| 2026-05-07 19:07 | 51.42408 | -0.36513 | 2817 ft | 233 kts | 161° |
| 2026-05-07 19:07 | 51.41038 | -0.35878 | 3198 ft | 250 kts | 171° |
| 2026-05-07 19:07 | 51.39279 | -0.36075 | 3936 ft | 260 kts | 197° |
| 2026-05-07 19:08 | 51.37620 | -0.37297 | 4807 ft | 265 kts | 206° |
| 2026-05-07 19:08 | 51.35959 | -0.38631 | 5623 ft | 270 kts | 206° |
| 2026-05-07 19:08 | 51.34271 | -0.39976 | 5923 ft | 272 kts | 206° |
| 2026-05-07 19:08 | 51.32574 | -0.41319 | 6005 ft | 271 kts | 206° |
| 2026-05-07 19:09 | 51.30882 | -0.42654 | 6008 ft | 271 kts | 206° |
| 2026-05-07 19:09 | 51.29214 | -0.43962 | 6012 ft | 271 kts | 206° |
| 2026-05-07 19:09 | 51.27548 | -0.45264 | 6011 ft | 271 kts | 206° |
| 2026-05-07 19:09 | 51.25860 | -0.46597 | 6014 ft | 271 kts | 206° |
| 2026-05-07 19:10 | 51.24171 | -0.47943 | 6015 ft | 271 kts | 206° |
| 2026-05-07 19:10 | 51.22482 | -0.49290 | 6016 ft | 272 kts | 206° |
| 2026-05-07 19:10 | 51.20767 | -0.50633 | 6639 ft | 275 kts | 206° |
| 2026-05-07 19:10 | 51.19047 | -0.51967 | 7584 ft | 274 kts | 206° |
| 2026-05-07 19:11 | 51.17326 | -0.53298 | 8471 ft | 276 kts | 207° |
| 2026-05-07 19:11 | 51.15594 | -0.54635 | 9322 ft | 278 kts | 207° |
| 2026-05-07 19:11 | 51.13841 | -0.55985 | 10149 ft | 280 kts | 207° |
| 2026-05-07 19:11 | 51.12069 | -0.57352 | 10568 ft | 297 kts | 207° |
| 2026-05-07 19:12 | 51.10137 | -0.58841 | 10749 ft | 320 kts | 206° |
| 2026-05-07 19:12 | 51.07956 | -0.59965 | 11039 ft | 338 kts | 192° |
| 2026-05-07 19:12 | 51.05628 | -0.60203 | 11612 ft | 346 kts | 178° |
| 2026-05-07 19:12 | 51.03246 | -0.59502 | 12261 ft | 351 kts | 163° |
| 2026-05-07 19:13 | 51.01024 | -0.57837 | 12934 ft | 357 kts | 149° |
| 2026-05-07 19:13 | 50.98957 | -0.55635 | 13626 ft | 359 kts | 147° |
| 2026-05-07 19:13 | 50.96876 | -0.53408 | 14268 ft | 362 kts | 147° |
| 2026-05-07 19:13 | 50.94783 | -0.51173 | 14844 ft | 365 kts | 148° |
| 2026-05-07 19:14 | 50.92693 | -0.48949 | 15403 ft | 368 kts | 148° |
| 2026-05-07 19:14 | 50.90555 | -0.46680 | 15934 ft | 372 kts | 148° |
| 2026-05-07 19:14 | 50.88399 | -0.44393 | 16479 ft | 375 kts | 148° |
| 2026-05-07 19:14 | 50.86219 | -0.42080 | 16928 ft | 379 kts | 148° |
| 2026-05-07 19:15 | 50.84030 | -0.39758 | 17039 ft | 379 kts | 148° |
| 2026-05-07 19:15 | 50.81838 | -0.37433 | 17053 ft | 379 kts | 148° |
| 2026-05-07 19:15 | 50.79644 | -0.35107 | 17053 ft | 379 kts | 148° |
| 2026-05-07 19:15 | 50.77453 | -0.32787 | 17055 ft | 379 kts | 148° |
| 2026-05-07 19:16 | 50.75290 | -0.30505 | 17058 ft | 379 kts | 148° |
| 2026-05-07 19:16 | 50.73110 | -0.28155 | 17054 ft | 379 kts | 146° |
| 2026-05-07 19:16 | 50.70960 | -0.25735 | 17060 ft | 379 kts | 146° |
| 2026-05-07 19:16 | 50.68842 | -0.23342 | 17055 ft | 379 kts | 146° |
| 2026-05-07 19:17 | 50.66698 | -0.20923 | 17057 ft | 379 kts | 146° |
| 2026-05-07 19:17 | 50.64548 | -0.18497 | 17152 ft | 382 kts | 146° |
| 2026-05-07 19:17 | 50.62388 | -0.16060 | 17750 ft | 384 kts | 146° |
| 2026-05-07 19:17 | 50.60208 | -0.13595 | 18331 ft | 387 kts | 146° |
| 2026-05-07 19:18 | 50.58016 | -0.11112 | 18830 ft | 390 kts | 146° |
| 2026-05-07 19:18 | 50.55811 | -0.08610 | 19342 ft | 393 kts | 146° |
| 2026-05-07 19:18 | 50.53584 | -0.06081 | 19857 ft | 395 kts | 146° |
| 2026-05-07 19:18 | 50.51349 | -0.03547 | 20375 ft | 398 kts | 146° |
| 2026-05-07 19:19 | 50.49127 | -0.01025 | 20856 ft | 401 kts | 146° |
| 2026-05-07 19:19 | 50.46864 | 0.01546 | 21338 ft | 403 kts | 146° |
| 2026-05-07 19:19 | 50.44616 | 0.04099 | 21791 ft | 406 kts | 146° |
| 2026-05-07 19:19 | 50.42322 | 0.06702 | 22243 ft | 408 kts | 146° |
| 2026-05-07 19:20 | 50.40012 | 0.09323 | 22689 ft | 411 kts | 146° |
| 2026-05-07 19:20 | 50.37689 | 0.11958 | 23139 ft | 414 kts | 146° |
| 2026-05-07 19:20 | 50.35259 | 0.14371 | 23572 ft | 414 kts | 154° |
| 2026-05-07 19:20 | 50.32705 | 0.16477 | 23939 ft | 416 kts | 154° |
| 2026-05-07 19:21 | 50.30133 | 0.18586 | 24315 ft | 419 kts | 155° |
| 2026-05-07 19:21 | 50.27576 | 0.20670 | 24673 ft | 421 kts | 155° |
| 2026-05-07 19:21 | 50.24974 | 0.22787 | 25039 ft | 423 kts | 155° |
| 2026-05-07 19:21 | 50.22361 | 0.24911 | 25395 ft | 425 kts | 155° |
| 2026-05-07 19:22 | 50.19766 | 0.27159 | 25734 ft | 429 kts | 149° |
| 2026-05-07 19:22 | 50.17273 | 0.29723 | 26085 ft | 431 kts | 149° |
| 2026-05-07 19:22 | 50.14765 | 0.32306 | 26442 ft | 433 kts | 149° |
| 2026-05-07 19:22 | 50.12302 | 0.34896 | 26786 ft | 436 kts | 145° |
| 2026-05-07 19:23 | 50.09908 | 0.37830 | 27139 ft | 439 kts | 143° |
| 2026-05-07 19:23 | 50.07530 | 0.40837 | 27497 ft | 441 kts | 143° |
| 2026-05-07 19:23 | 50.05163 | 0.43885 | 27847 ft | 444 kts | 142° |
| 2026-05-07 19:23 | 50.02785 | 0.46971 | 28192 ft | 446 kts | 142° |
| 2026-05-07 19:24 | 50.00430 | 0.50026 | 28549 ft | 447 kts | 142° |
| 2026-05-07 19:24 | 49.98044 | 0.53105 | 29036 ft | 445 kts | 142° |
| 2026-05-07 19:24 | 49.95689 | 0.56124 | 29519 ft | 444 kts | 143° |
| 2026-05-07 19:24 | 49.93303 | 0.59163 | 30012 ft | 443 kts | 143° |
| 2026-05-07 19:25 | 49.90923 | 0.62186 | 30450 ft | 442 kts | 143° |
| 2026-05-07 19:25 | 49.88544 | 0.65201 | 30859 ft | 441 kts | 143° |
| 2026-05-07 19:25 | 49.86169 | 0.68204 | 31267 ft | 440 kts | 143° |
| 2026-05-07 19:25 | 49.83799 | 0.71198 | 31684 ft | 439 kts | 143° |
| 2026-05-07 19:26 | 49.81428 | 0.74192 | 32104 ft | 439 kts | 143° |
| 2026-05-07 19:26 | 49.79066 | 0.77172 | 32513 ft | 438 kts | 143° |
| 2026-05-07 19:26 | 49.76706 | 0.80147 | 32926 ft | 438 kts | 143° |
| 2026-05-07 19:26 | 49.74374 | 0.83083 | 33036 ft | 441 kts | 143° |
| 2026-05-07 19:27 | 49.69573 | 0.89109 | 33049 ft | 447 kts | 143° |
| 2026-05-07 19:27 | 49.64747 | 0.95169 | 33053 ft | 447 kts | 143° |
| 2026-05-07 19:28 | 49.59918 | 1.01220 | 33052 ft | 447 kts | 143° |
| 2026-05-07 19:28 | 49.55898 | 1.06238 | 33052 ft | 447 kts | 143° |
| 2026-05-07 19:29 | 49.50267 | 1.13237 | 33052 ft | 448 kts | 143° |
| 2026-05-07 19:29 | 49.45422 | 1.19249 | 33053 ft | 448 kts | 143° |
| 2026-05-07 19:30 | 49.41395 | 1.24240 | 33050 ft | 448 kts | 143° |
| 2026-05-07 19:30 | 49.36543 | 1.30236 | 33051 ft | 448 kts | 143° |
| 2026-05-07 19:31 | 49.31679 | 1.36215 | 33048 ft | 448 kts | 144° |
| 2026-05-07 19:31 | 49.26813 | 1.42179 | 33046 ft | 448 kts | 144° |
| 2026-05-07 19:32 | 49.21993 | 1.48099 | 33042 ft | 448 kts | 144° |
| 2026-05-07 19:32 | 49.17124 | 1.54063 | 33031 ft | 448 kts | 144° |
| 2026-05-07 19:33 | 49.12279 | 1.59965 | 33035 ft | 448 kts | 144° |
| 2026-05-07 19:33 | 49.07392 | 1.65888 | 33046 ft | 449 kts | 144° |
| 2026-05-07 19:34 | 49.02508 | 1.71806 | 33041 ft | 449 kts | 144° |
| 2026-05-07 19:34 | 48.97619 | 1.77729 | 33041 ft | 449 kts | 144° |
| 2026-05-07 19:35 | 48.92731 | 1.83634 | 33035 ft | 449 kts | 144° |
| 2026-05-07 19:35 | 48.87859 | 1.89492 | 33037 ft | 449 kts | 144° |
| 2026-05-07 19:36 | 48.82949 | 1.95376 | 33044 ft | 450 kts | 144° |
| 2026-05-07 19:36 | 48.78039 | 2.01256 | 33048 ft | 450 kts | 144° |
| 2026-05-07 19:37 | 48.73123 | 2.07129 | 33046 ft | 450 kts | 144° |
| 2026-05-07 19:37 | 48.68201 | 2.13000 | 33048 ft | 450 kts | 145° |
| 2026-05-07 19:38 | 48.63301 | 2.18809 | 33051 ft | 451 kts | 145° |
| 2026-05-07 19:38 | 48.58361 | 2.24655 | 33041 ft | 451 kts | 145° |
| 2026-05-07 19:39 | 48.53462 | 2.30458 | 33039 ft | 451 kts | 145° |
| 2026-05-07 19:39 | 48.48517 | 2.36286 | 33039 ft | 451 kts | 145° |
| 2026-05-07 19:40 | 48.43562 | 2.42110 | 33039 ft | 452 kts | 145° |
| 2026-05-07 19:40 | 48.38605 | 2.47923 | 33033 ft | 452 kts | 145° |
| 2026-05-07 19:41 | 48.33675 | 2.53694 | 33032 ft | 452 kts | 145° |
| 2026-05-07 19:41 | 48.28703 | 2.59500 | 33023 ft | 453 kts | 145° |
| 2026-05-07 19:42 | 48.23725 | 2.65295 | 33024 ft | 453 kts | 146° |
| 2026-05-07 19:42 | 48.18780 | 2.71028 | 33020 ft | 453 kts | 146° |
| 2026-05-07 19:43 | 48.13787 | 2.76812 | 33023 ft | 454 kts | 146° |
| 2026-05-07 19:43 | 48.08822 | 2.82549 | 33021 ft | 454 kts | 146° |
| 2026-05-07 19:44 | 48.03821 | 2.88324 | 33024 ft | 454 kts | 146° |
| 2026-05-07 19:44 | 47.98812 | 2.94082 | 33025 ft | 455 kts | 146° |
| 2026-05-07 19:45 | 47.93793 | 2.99828 | 33027 ft | 455 kts | 146° |
| 2026-05-07 19:45 | 47.88769 | 3.05569 | 33026 ft | 455 kts | 146° |
| 2026-05-07 19:46 | 47.83818 | 3.11211 | 33029 ft | 455 kts | 146° |
| 2026-05-07 19:46 | 47.78783 | 3.16944 | 33026 ft | 455 kts | 146° |
| 2026-05-07 19:47 | 47.73752 | 3.22663 | 33026 ft | 456 kts | 146° |
| 2026-05-07 19:47 | 47.68713 | 3.28375 | 33023 ft | 456 kts | 147° |
| 2026-05-07 19:48 | 47.63666 | 3.34066 | 33028 ft | 456 kts | 147° |
| 2026-05-07 19:48 | 47.58649 | 3.39715 | 33026 ft | 456 kts | 147° |
| 2026-05-07 19:49 | 47.53598 | 3.45398 | 33028 ft | 456 kts | 147° |
| 2026-05-07 19:49 | 47.48542 | 3.51069 | 33028 ft | 456 kts | 147° |
| 2026-05-07 19:50 | 47.43510 | 3.56698 | 32696 ft | 457 kts | 147° |
| 2026-05-07 19:50 | 47.40979 | 3.59530 | 32431 ft | 456 kts | 147° |
| 2026-05-07 19:50 | 47.38446 | 3.62359 | 32163 ft | 457 kts | 147° |
| 2026-05-07 19:51 | 47.35909 | 3.65181 | 31898 ft | 456 kts | 147° |
| 2026-05-07 19:51 | 47.33374 | 3.67995 | 31643 ft | 457 kts | 147° |
| 2026-05-07 19:51 | 47.30870 | 3.70771 | 31388 ft | 457 kts | 146° |
| 2026-05-07 19:51 | 47.28328 | 3.73586 | 31134 ft | 457 kts | 146° |
| 2026-05-07 19:52 | 47.25790 | 3.76395 | 30877 ft | 457 kts | 146° |
| 2026-05-07 19:52 | 47.23248 | 3.79204 | 30632 ft | 457 kts | 146° |
| 2026-05-07 19:52 | 47.20707 | 3.82013 | 30382 ft | 457 kts | 146° |
| 2026-05-07 19:52 | 47.18164 | 3.84826 | 30145 ft | 457 kts | 146° |
| 2026-05-07 19:53 | 47.15623 | 3.87633 | 29855 ft | 457 kts | 146° |
| 2026-05-07 19:53 | 47.13080 | 3.90438 | 29566 ft | 456 kts | 146° |
| 2026-05-07 19:53 | 47.10543 | 3.93229 | 29279 ft | 455 kts | 146° |
| 2026-05-07 19:53 | 47.08050 | 3.95964 | 28997 ft | 453 kts | 146° |
| 2026-05-07 19:54 | 47.05531 | 3.98724 | 28722 ft | 451 kts | 146° |
| 2026-05-07 19:54 | 47.03056 | 4.01434 | 28441 ft | 449 kts | 146° |
| 2026-05-07 19:54 | 47.00565 | 4.04165 | 28161 ft | 447 kts | 146° |
| 2026-05-07 19:54 | 46.98106 | 4.06942 | 27894 ft | 447 kts | 141° |
| 2026-05-07 19:55 | 46.96063 | 4.10374 | 27613 ft | 450 kts | 125° |
| 2026-05-07 19:55 | 46.94684 | 4.14486 | 27314 ft | 452 kts | 114° |
| 2026-05-07 19:55 | 46.93548 | 4.18760 | 27023 ft | 450 kts | 113° |
| 2026-05-07 19:55 | 46.92430 | 4.23030 | 26736 ft | 448 kts | 113° |
| 2026-05-07 19:56 | 46.91323 | 4.27278 | 26457 ft | 446 kts | 113° |
| 2026-05-07 19:56 | 46.90215 | 4.31499 | 26175 ft | 444 kts | 113° |
| 2026-05-07 19:56 | 46.89104 | 4.35702 | 25899 ft | 442 kts | 113° |
| 2026-05-07 19:56 | 46.87995 | 4.39879 | 25621 ft | 440 kts | 113° |
| 2026-05-07 19:57 | 46.86918 | 4.43922 | 25352 ft | 438 kts | 113° |
| 2026-05-07 19:57 | 46.85817 | 4.48056 | 25081 ft | 436 kts | 113° |
| 2026-05-07 19:57 | 46.84722 | 4.52170 | 24812 ft | 434 kts | 113° |
| 2026-05-07 19:57 | 46.83626 | 4.56270 | 24544 ft | 432 kts | 113° |
| 2026-05-07 19:58 | 46.82536 | 4.60343 | 24282 ft | 430 kts | 113° |
| 2026-05-07 19:58 | 46.81447 | 4.64395 | 24023 ft | 428 kts | 113° |
| 2026-05-07 19:58 | 46.80358 | 4.68430 | 23764 ft | 426 kts | 113° |
| 2026-05-07 19:58 | 46.79275 | 4.72449 | 23489 ft | 424 kts | 113° |
| 2026-05-07 19:59 | 46.78198 | 4.76446 | 23180 ft | 423 kts | 113° |
| 2026-05-07 19:59 | 46.77130 | 4.80402 | 22878 ft | 421 kts | 113° |
| 2026-05-07 19:59 | 46.76080 | 4.84272 | 22582 ft | 419 kts | 113° |
| 2026-05-07 19:59 | 46.75008 | 4.88217 | 22286 ft | 418 kts | 113° |
| 2026-05-07 20:00 | 46.73952 | 4.92102 | 21993 ft | 416 kts | 113° |
| 2026-05-07 20:00 | 46.72902 | 4.95960 | 21708 ft | 415 kts | 113° |
| 2026-05-07 20:00 | 46.71839 | 4.99856 | 21428 ft | 413 kts | 113° |
| 2026-05-07 20:00 | 46.70779 | 5.03740 | 21169 ft | 412 kts | 113° |
| 2026-05-07 20:01 | 46.69723 | 5.07605 | 20903 ft | 410 kts | 113° |
| 2026-05-07 20:01 | 46.68669 | 5.11460 | 20644 ft | 409 kts | 113° |
| 2026-05-07 20:01 | 46.67618 | 5.15295 | 20398 ft | 407 kts | 113° |
| 2026-05-07 20:01 | 46.66726 | 5.19150 | 20141 ft | 407 kts | 105° |
| 2026-05-07 20:02 | 46.66105 | 5.23164 | 19893 ft | 406 kts | 103° |
| 2026-05-07 20:02 | 46.65506 | 5.27180 | 19647 ft | 405 kts | 103° |
| 2026-05-07 20:02 | 46.64905 | 5.31178 | 19408 ft | 404 kts | 103° |
| 2026-05-07 20:02 | 46.64301 | 5.35165 | 19163 ft | 402 kts | 103° |
| 2026-05-07 20:03 | 46.63702 | 5.39085 | 18917 ft | 389 kts | 103° |
| 2026-05-07 20:03 | 46.63128 | 5.42827 | 18673 ft | 369 kts | 103° |
| 2026-05-07 20:03 | 46.62585 | 5.46391 | 18439 ft | 352 kts | 103° |
| 2026-05-07 20:03 | 46.62064 | 5.49809 | 18190 ft | 343 kts | 103° |
| 2026-05-07 20:04 | 46.61548 | 5.53138 | 17922 ft | 341 kts | 104° |
| 2026-05-07 20:04 | 46.61023 | 5.56480 | 17656 ft | 338 kts | 104° |
| 2026-05-07 20:04 | 46.60501 | 5.59802 | 17387 ft | 336 kts | 104° |
| 2026-05-07 20:04 | 46.59982 | 5.63109 | 17107 ft | 334 kts | 104° |
| 2026-05-07 20:05 | 46.59464 | 5.66386 | 16848 ft | 332 kts | 104° |
| 2026-05-07 20:05 | 46.58949 | 5.69653 | 16586 ft | 331 kts | 104° |
| 2026-05-07 20:05 | 46.58436 | 5.72910 | 16327 ft | 329 kts | 104° |
| 2026-05-07 20:05 | 46.57808 | 5.76096 | 16066 ft | 327 kts | 112° |
| 2026-05-07 20:06 | 46.56858 | 5.79073 | 15819 ft | 324 kts | 121° |
| 2026-05-07 20:06 | 46.55610 | 5.81781 | 15574 ft | 321 kts | 130° |
| 2026-05-07 20:06 | 46.54131 | 5.84131 | 15324 ft | 318 kts | 139° |
| 2026-05-07 20:06 | 46.52424 | 5.86149 | 15077 ft | 315 kts | 147° |
| 2026-05-07 20:07 | 46.50624 | 5.87957 | 14830 ft | 314 kts | 147° |
| 2026-05-07 20:07 | 46.48831 | 5.89759 | 14581 ft | 313 kts | 147° |
| 2026-05-07 20:07 | 46.47044 | 5.91556 | 14338 ft | 312 kts | 147° |
| 2026-05-07 20:07 | 46.45265 | 5.93340 | 14097 ft | 310 kts | 147° |
| 2026-05-07 20:08 | 46.43493 | 5.95114 | 13860 ft | 309 kts | 147° |
| 2026-05-07 20:08 | 46.41728 | 5.96879 | 13592 ft | 307 kts | 147° |
| 2026-05-07 20:08 | 46.39997 | 5.98611 | 13326 ft | 306 kts | 147° |
| 2026-05-07 20:08 | 46.38254 | 6.00355 | 13063 ft | 304 kts | 147° |
| 2026-05-07 20:09 | 46.36408 | 6.01780 | 12795 ft | 298 kts | 164° |
| 2026-05-07 20:09 | 46.34386 | 6.02239 | 12534 ft | 293 kts | 184° |
| 2026-05-07 20:09 | 46.32403 | 6.01708 | 12286 ft | 288 kts | 202° |
| 2026-05-07 20:10 | 46.29261 | 5.98292 | 11767 ft | 284 kts | 226° |
| 2026-05-07 20:10 | 46.27879 | 5.96262 | 11515 ft | 283 kts | 225° |
| 2026-05-07 20:10 | 46.26500 | 5.94250 | 11266 ft | 281 kts | 225° |
| 2026-05-07 20:10 | 46.25145 | 5.92279 | 11017 ft | 279 kts | 225° |
| 2026-05-07 20:11 | 46.23779 | 5.90294 | 10765 ft | 278 kts | 225° |
| 2026-05-07 20:11 | 46.22422 | 5.88320 | 10525 ft | 276 kts | 225° |
| 2026-05-07 20:11 | 46.21077 | 5.86361 | 10286 ft | 274 kts | 225° |
| 2026-05-07 20:11 | 46.19741 | 5.84413 | 10045 ft | 272 kts | 224° |
| 2026-05-07 20:12 | 46.18411 | 5.82479 | 9882 ft | 271 kts | 224° |
| 2026-05-07 20:12 | 46.17081 | 5.80549 | 9729 ft | 271 kts | 224° |
| 2026-05-07 20:12 | 46.15750 | 5.78620 | 9607 ft | 271 kts | 224° |
| 2026-05-07 20:12 | 46.14414 | 5.76687 | 9194 ft | 275 kts | 224° |
| 2026-05-07 20:13 | 46.13066 | 5.74744 | 8918 ft | 271 kts | 224° |
| 2026-05-07 20:13 | 46.11758 | 5.72857 | 8844 ft | 270 kts | 224° |
| 2026-05-07 20:13 | 46.10428 | 5.70935 | 8783 ft | 271 kts | 224° |
| 2026-05-07 20:13 | 46.09099 | 5.69015 | 8697 ft | 271 kts | 224° |
| 2026-05-07 20:14 | 46.07766 | 5.67091 | 8513 ft | 271 kts | 224° |
| 2026-05-07 20:14 | 46.06438 | 5.65178 | 8332 ft | 271 kts | 224° |
| 2026-05-07 20:14 | 46.05014 | 5.63425 | 8152 ft | 270 kts | 210° |
| 2026-05-07 20:14 | 46.03251 | 5.62552 | 7981 ft | 270 kts | 186° |
| 2026-05-07 20:15 | 46.01392 | 5.62811 | 7794 ft | 272 kts | 162° |
| 2026-05-07 20:15 | 45.99769 | 5.64189 | 7615 ft | 274 kts | 137° |
| 2026-05-07 20:15 | 45.98700 | 5.66408 | 7430 ft | 278 kts | 113° |
| 2026-05-07 20:15 | 45.98371 | 5.69095 | 7282 ft | 268 kts | 88° |
| 2026-05-07 20:16 | 45.98813 | 5.71600 | 7212 ft | 252 kts | 64° |
| 2026-05-07 20:16 | 45.99620 | 5.73750 | 7126 ft | 240 kts | 64° |
| 2026-05-07 20:16 | 46.00344 | 5.75899 | 7025 ft | 237 kts | 65° |
| 2026-05-07 20:16 | 46.01228 | 5.77890 | 7001 ft | 237 kts | 51° |
| 2026-05-07 20:17 | 46.02347 | 5.79640 | 6978 ft | 239 kts | 46° |
| 2026-05-07 20:17 | 46.03521 | 5.81327 | 6757 ft | 237 kts | 45° |
| 2026-05-07 20:17 | 46.04681 | 5.82998 | 6470 ft | 235 kts | 46° |
| 2026-05-07 20:17 | 46.05825 | 5.84658 | 6157 ft | 233 kts | 46° |
| 2026-05-07 20:18 | 46.06943 | 5.86282 | 5846 ft | 230 kts | 46° |
| 2026-05-07 20:18 | 46.08049 | 5.87888 | 5541 ft | 222 kts | 46° |
| 2026-05-07 20:18 | 46.09115 | 5.89439 | 5256 ft | 214 kts | 46° |
| 2026-05-07 20:18 | 46.10146 | 5.90939 | 4967 ft | 207 kts | 46° |
| 2026-05-07 20:19 | 46.11150 | 5.92400 | 4695 ft | 202 kts | 46° |
| 2026-05-07 20:19 | 46.12097 | 5.93778 | 4421 ft | 184 kts | 46° |
| 2026-05-07 20:19 | 46.12957 | 5.95032 | 4188 ft | 169 kts | 46° |
| 2026-05-07 20:19 | 46.13762 | 5.96206 | 3973 ft | 160 kts | 46° |
| 2026-05-07 20:20 | 46.14510 | 5.97297 | 3786 ft | 147 kts | 46° |
| 2026-05-07 20:20 | 46.15209 | 5.98317 | 3584 ft | 143 kts | 46° |
| 2026-05-07 20:20 | 46.15904 | 5.99333 | 3405 ft | 142 kts | 46° |
| 2026-05-07 20:20 | 46.16592 | 6.00337 | 3206 ft | 140 kts | 45° |
| 2026-05-07 20:21 | 46.17277 | 6.01337 | 3014 ft | 140 kts | 45° |
| 2026-05-07 20:21 | 46.17964 | 6.02341 | 2816 ft | 141 kts | 45° |
| 2026-05-07 20:21 | 46.18650 | 6.03345 | 2625 ft | 140 kts | 45° |
| 2026-05-07 20:21 | 46.19336 | 6.04347 | 2427 ft | 140 kts | 45° |
| 2026-05-07 20:22 | 46.20020 | 6.05348 | 2233 ft | 141 kts | 45° |
| 2026-05-07 20:22 | 46.20705 | 6.06355 | 2039 ft | 140 kts | 45° |
| 2026-05-07 20:22 | 46.21376 | 6.07347 | 1860 ft | 140 kts | 45° |
| 2026-05-07 20:22 | 46.22061 | 6.08345 | 1680 ft | 140 kts | 45° |
| 2026-05-07 20:23 | 46.22744 | 6.09340 | 1476 ft | 139 kts | 44° |
| 2026-05-07 20:23 | 46.23383 | 6.10277 | 1411 ft | 110 kts | 44° |
| 2026-05-07 20:23 | 46.23709 | 6.10745 | 1403 ft | 22 kts | 46° |
| 2026-05-07 20:23 | 46.23820 | 6.10906 | 1403 ft | 29 kts | 45° |
| 2026-05-07 20:24 | 46.23793 | 6.11073 | 1402 ft | 20 kts | 180° |
| 2026-05-07 20:24 | 46.23691 | 6.11058 | 1404 ft | 10 kts | 219° |
| 2026-05-07 20:24 | 46.23660 | 6.11009 | 1401 ft | 6 kts | 228° |
| 2026-05-07 20:24 | 46.23642 | 6.10982 | 1402 ft | 4 kts | 227° |
| 2026-05-07 20:25 | 46.23627 | 6.10959 | 1402 ft | 0 kts | 225° |
| 2026-05-07 20:25 | 46.23626 | 6.10958 | 1402 ft | 0 kts | 225° |
| 2026-05-07 20:25 | 46.23625 | 6.10957 | 1402 ft | 0 kts | 225° |
| 2026-05-07 20:27 | 46.23623 | 6.10954 | 1401 ft | 1 kts | 224° |
| 2026-05-07 20:27 | 46.23603 | 6.10925 | 1404 ft | 11 kts | 224° |
| 2026-05-07 20:28 | 46.23552 | 6.10861 | 1400 ft | 6 kts | 196° |
| 2026-05-07 20:28 | 46.23509 | 6.10913 | 1402 ft | 10 kts | 135° |
| 2026-05-07 20:28 | 46.23444 | 6.10994 | 1397 ft | 11 kts | 156° |
| 2026-05-07 20:28 | 46.23389 | 6.11026 | 1400 ft | 6 kts | 137° |
| 2026-05-07 20:29 | 46.23370 | 6.11056 | 1404 ft | 0 kts | 133° |